Time;durP1;ratioP1;P1;durP2;ratioP2;P2;SDS_P1;SDS_P2;PMS_P1;PMS_P2;Temp;Humidity;BMP_temperature;BMP_pressure;BME280_temperature;BME280_humidity;BME280_pressure;Samples;Min_cycle;Max_cycle;Signal;HPM_P1;HPM_P2
2021/08/01 00:01:54;;;;;;;13.73;10.40;;;18.10;99.90;;;;;;5013740;28;20469;-52
2021/08/01 00:04:21;;;;;;;13.73;9.67;;;17.90;99.90;;;;;;5013988;28;20458;-53
2021/08/01 00:06:48;;;;;;;11.90;8.73;;;17.90;99.90;;;;;;5014002;28;20500;-52
2021/08/01 00:09:17;;;;;;;11.80;9.03;;;17.90;99.90;;;;;;5013627;28;20499;-52
2021/08/01 00:11:45;;;;;;;13.10;9.83;;;17.90;99.90;;;;;;5013618;28;20568;-52
2021/08/01 00:14:12;;;;;;;10.80;8.50;;;17.90;99.90;;;;;;5032317;28;20492;-51
2021/08/01 00:16:39;;;;;;;10.33;7.80;;;17.80;99.90;;;;;;5033520;28;20449;-53
2021/08/01 00:19:06;;;;;;;12.70;8.30;;;17.70;99.90;;;;;;5033752;28;20453;-51
2021/08/01 00:21:33;;;;;;;10.10;7.00;;;17.70;99.90;;;;;;5021534;28;20477;-53
2021/08/01 00:24:00;;;;;;;10.00;6.90;;;17.60;99.90;;;;;;5015371;28;20511;-51
2021/08/01 00:26:27;;;;;;;6.57;4.97;;;17.60;99.90;;;;;;5031460;28;20456;-51
2021/08/01 00:28:56;;;;;;;7.90;6.00;;;17.50;99.90;;;;;;5032914;28;20498;-52
2021/08/01 00:31:23;;;;;;;7.40;4.27;;;17.40;99.90;;;;;;5023580;28;20942;-52
2021/08/01 00:33:50;;;;;;;6.37;4.57;;;17.40;99.90;;;;;;5031116;28;20461;-52
2021/08/01 00:36:17;;;;;;;2.00;1.67;;;17.30;99.90;;;;;;5013565;28;20458;-52
2021/08/01 00:38:44;;;;;;;1.70;1.60;;;17.10;99.90;;;;;;5016929;28;20506;-52
2021/08/01 00:41:11;;;;;;;3.70;1.43;;;16.60;99.90;;;;;;5038547;28;20515;-51
2021/08/01 00:43:38;;;;;;;5.00;2.67;;;16.50;99.90;;;;;;5032673;28;20510;-52
2021/08/01 00:46:07;;;;;;;3.33;3.07;;;16.30;99.90;;;;;;5024833;28;20449;-51
2021/08/01 00:48:35;;;;;;;3.20;2.93;;;16.10;99.90;;;;;;5016054;28;20449;-51
2021/08/01 00:51:02;;;;;;;5.07;3.50;;;16.00;99.90;;;;;;5024420;28;21067;-52
2021/08/01 00:53:29;;;;;;;3.90;3.50;;;15.90;99.90;;;;;;5031435;28;20530;-52
2021/08/01 00:55:56;;;;;;;3.40;3.13;;;15.80;99.90;;;;;;5032005;28;20950;-51
2021/08/01 00:58:23;;;;;;;4.83;3.23;;;15.80;99.90;;;;;;5012978;28;20669;-52
2021/08/01 01:01:05;;;;;;;3.40;3.07;;;15.70;99.90;;;;;;5025960;28;20866;-51
2021/08/01 01:03:42;;;;;;;4.87;4.00;;;15.70;99.90;;;;;;5032968;28;20459;-50
2021/08/01 01:06:15;;;;;;;7.93;4.13;;;15.50;99.90;;;;;;5032759;28;20554;-50
2021/08/01 01:08:49;;;;;;;5.27;3.80;;;15.50;99.90;;;;;;5032680;28;20503;-50
2021/08/01 01:11:17;;;;;;;4.20;3.60;;;15.30;99.90;;;;;;5032101;28;20546;-50
2021/08/01 01:13:48;;;;;;;4.97;4.20;;;15.30;99.90;;;;;;5032047;28;20456;-50
2021/08/01 01:16:15;;;;;;;6.20;4.10;;;15.30;99.90;;;;;;5031960;28;20453;-51
2021/08/01 01:18:48;;;;;;;5.80;3.80;;;15.20;99.90;;;;;;5031780;28;20959;-49
2021/08/01 01:21:42;;;;;;;4.97;4.23;;;15.20;99.90;;;;;;5019430;28;20472;-50
2021/08/01 01:24:15;;;;;;;5.30;4.77;;;15.10;99.90;;;;;;5030591;28;20464;-50
2021/08/01 01:26:51;;;;;;;8.20;6.10;;;15.10;99.90;;;;;;5032228;28;20445;-50
2021/08/01 01:29:23;;;;;;;11.27;5.93;;;15.10;99.90;;;;;;5030440;28;20958;-50
2021/08/01 01:32:01;;;;;;;6.93;5.77;;;15.00;99.90;;;;;;5031873;28;20555;-50
2021/08/01 01:34:34;;;;;;;8.00;6.20;;;15.00;99.90;;;;;;5031810;28;20453;-49
2021/08/01 01:37:09;;;;;;;10.10;5.80;;;15.00;99.90;;;;;;5032259;28;20851;-50
2021/08/01 01:39:39;;;;;;;7.53;6.07;;;15.00;99.90;;;;;;5030315;28;20458;-50
2021/08/01 01:42:12;;;;;;;11.30;6.47;;;15.00;99.90;;;;;;5013927;28;20470;-50
2021/08/01 01:44:39;;;;;;;8.47;6.20;;;15.00;99.90;;;;;;5031171;28;20453;-50
2021/08/01 01:47:10;;;;;;;8.00;6.13;;;15.00;99.90;;;;;;5032140;28;20506;-50
2021/08/01 01:49:37;;;;;;;6.27;5.63;;;15.00;99.90;;;;;;5031876;28;20503;-50
2021/08/01 01:52:12;;;;;;;5.40;4.77;;;15.00;99.90;;;;;;5030173;28;20913;-50
2021/08/01 01:54:39;;;;;;;6.40;5.23;;;15.00;99.90;;;;;;5031958;28;20458;-51
2021/08/01 01:57:08;;;;;;;3.90;3.53;;;15.10;99.90;;;;;;5031383;28;20874;-50
2021/08/01 01:59:35;;;;;;;3.77;3.47;;;15.20;99.90;;;;;;5030345;28;20460;-51
2021/08/01 02:02:02;;;;;;;5.03;4.00;;;15.20;99.90;;;;;;5031443;28;20488;-50
2021/08/01 02:04:29;;;;;;;5.03;3.93;;;15.20;99.90;;;;;;5031667;28;20891;-50
2021/08/01 02:06:56;;;;;;;5.17;3.90;;;15.30;99.90;;;;;;5030538;28;20449;-51
2021/08/01 02:09:33;;;;;;;3.97;3.63;;;15.30;99.90;;;;;;5031896;28;20526;-50
2021/08/01 02:12:12;;;;;;;7.00;4.57;;;15.20;99.90;;;;;;5030954;28;20476;-50
2021/08/01 02:14:50;;;;;;;4.67;4.20;;;15.20;99.90;;;;;;5031637;28;20950;-50
2021/08/01 02:17:22;;;;;;;4.80;4.40;;;15.20;99.90;;;;;;5030884;28;20449;-50
2021/08/01 02:19:50;;;;;;;6.23;3.93;;;15.30;99.90;;;;;;5038670;28;20953;-50
2021/08/01 02:22:18;;;;;;;5.97;4.83;;;15.20;99.90;;;;;;5031335;28;20575;-51
2021/08/01 02:24:49;;;;;;;5.20;4.70;;;15.10;99.90;;;;;;5031479;28;20453;-50
2021/08/01 02:27:17;;;;;;;8.40;5.23;;;15.10;99.90;;;;;;5030849;28;21025;-50
2021/08/01 02:29:44;;;;;;;7.40;4.80;;;15.00;99.90;;;;;;5031297;28;20448;-50
2021/08/01 02:32:15;;;;;;;7.50;4.57;;;15.00;99.90;;;;;;5033138;28;20974;-49
2021/08/01 02:34:42;;;;;;;6.53;4.33;;;14.90;99.90;;;;;;5015867;28;20511;-50
2021/08/01 02:37:12;;;;;;;5.30;4.40;;;14.90;99.90;;;;;;5029946;28;21004;-50
2021/08/01 02:39:39;;;;;;;6.03;4.50;;;14.90;99.90;;;;;;5035336;28;21016;-51
2021/08/01 02:42:11;;;;;;;5.43;4.80;;;14.90;99.90;;;;;;5034491;28;20480;-51
2021/08/01 02:44:40;;;;;;;6.37;4.67;;;15.00;99.90;;;;;;5035320;28;20449;-51
2021/08/01 02:47:12;;;;;;;5.30;4.77;;;15.00;99.90;;;;;;5034281;28;20498;-50
2021/08/01 02:49:41;;;;;;;7.47;5.03;;;15.00;99.90;;;;;;5035194;28;20954;-50
2021/08/01 02:52:11;;;;;;;4.57;4.17;;;15.10;99.90;;;;;;5070985;22;20503;-58
2021/08/01 02:54:41;;;;;;;7.10;4.47;;;15.10;99.90;;;;;;5055135;28;20530;-57
2021/08/01 02:57:14;;;;;;;6.17;4.43;;;15.30;99.90;;;;;;5054213;28;20530;-57
2021/08/01 02:59:43;;;;;;;5.20;4.70;;;15.40;99.90;;;;;;5052082;28;20962;-57
2021/08/01 03:02:12;;;;;;;4.63;4.23;;;15.30;99.90;;;;;;5044506;28;20571;-57
2021/08/01 03:04:40;;;;;;;5.00;4.33;;;15.40;99.90;;;;;;5074827;28;21019;-57
2021/08/01 03:07:08;;;;;;;6.60;4.47;;;15.40;99.90;;;;;;5074834;28;20496;-57
2021/08/01 03:09:35;;;;;;;6.73;4.47;;;15.50;99.90;;;;;;5062587;28;20448;-57
2021/08/01 03:12:13;;;;;;;6.17;4.20;;;15.50;99.90;;;;;;5054685;28;20521;-57
2021/08/01 03:14:40;;;;;;;6.17;4.30;;;15.60;99.90;;;;;;5054850;28;20520;-58
2021/08/01 03:17:08;;;;;;;5.00;4.07;;;15.70;99.90;;;;;;5066875;28;20535;-57
2021/08/01 03:19:37;;;;;;;4.60;3.73;;;15.70;99.90;;;;;;5074372;28;20451;-57
2021/08/01 03:22:07;;;;;;;6.07;4.40;;;15.80;99.90;;;;;;5074234;28;20483;-58
2021/08/01 03:24:34;;;;;;;6.03;4.23;;;15.70;99.90;;;;;;5061241;28;20450;-57
2021/08/01 03:27:01;;;;;;;4.37;3.97;;;15.60;99.90;;;;;;5067107;28;20513;-57
2021/08/01 03:29:30;;;;;;;6.63;4.50;;;15.70;99.90;;;;;;5055671;28;20455;-57
2021/08/01 03:31:57;;;;;;;4.03;3.37;;;15.80;99.90;;;;;;5057040;28;20523;-57
2021/08/01 03:34:24;;;;;;;4.30;3.87;;;15.80;99.90;;;;;;5074025;28;20451;-57
2021/08/01 03:36:51;;;;;;;5.17;3.30;;;15.90;99.90;;;;;;5064293;28;20466;-58
2021/08/01 03:39:18;;;;;;;5.60;4.30;;;15.80;99.90;;;;;;5054328;28;20452;-57
2021/08/01 03:41:46;;;;;;;4.67;4.00;;;15.80;99.90;;;;;;5067859;28;20536;-57
2021/08/01 03:44:13;;;;;;;4.60;4.00;;;15.90;99.90;;;;;;5073640;28;20451;-57
2021/08/01 03:46:41;;;;;;;4.10;3.70;;;15.90;99.90;;;;;;5066462;28;20447;-57
2021/08/01 03:49:08;;;;;;;4.00;3.70;;;15.90;99.90;;;;;;5061437;28;20512;-57
2021/08/01 03:51:35;;;;;;;4.63;3.77;;;15.90;99.90;;;;;;5073659;28;20540;-58
2021/08/01 03:54:02;;;;;;;6.37;4.20;;;16.00;99.90;;;;;;5074002;28;20442;-57
2021/08/01 03:56:29;;;;;;;5.33;4.27;;;15.80;99.90;;;;;;5067144;28;20510;-57
2021/08/01 03:58:57;;;;;;;3.90;3.60;;;16.00;99.90;;;;;;5053859;28;20867;-58
2021/08/01 04:01:24;;;;;;;8.37;4.10;;;16.20;99.90;;;;;;5052968;28;20493;-57
2021/08/01 04:03:52;;;;;;;4.80;3.93;;;16.20;99.90;;;;;;5053484;28;20510;-58
2021/08/01 04:06:19;;;;;;;6.70;4.00;;;16.20;99.90;;;;;;5056594;28;20504;-57
2021/08/01 04:08:46;;;;;;;5.17;4.13;;;16.10;99.90;;;;;;5073911;28;20496;-58
2021/08/01 04:11:13;;;;;;;9.30;4.27;;;16.10;99.90;;;;;;5073091;28;20470;-58
2021/08/01 04:13:40;;;;;;;4.97;4.13;;;16.00;99.90;;;;;;5052867;28;20478;-57
2021/08/01 04:16:08;;;;;;;3.77;3.47;;;16.00;99.90;;;;;;5061195;28;20451;-58
2021/08/01 04:18:35;;;;;;;6.07;4.63;;;16.00;99.90;;;;;;5053482;28;21007;-57
2021/08/01 04:21:07;;;;;;;4.50;3.93;;;16.00;99.90;;;;;;5053712;28;20476;-58
2021/08/01 04:23:35;;;;;;;6.10;4.07;;;15.90;99.90;;;;;;5069567;28;20900;-57
2021/08/01 04:26:02;;;;;;;6.03;4.40;;;16.00;99.90;;;;;;5073746;28;20526;-57
2021/08/01 04:28:29;;;;;;;4.97;4.30;;;16.00;99.90;;;;;;5064693;28;20814;-57
2021/08/01 04:30:56;;;;;;;4.87;4.07;;;15.80;99.90;;;;;;5053217;28;20533;-57
2021/08/01 04:33:23;;;;;;;5.93;4.53;;;15.90;99.90;;;;;;5067223;28;20443;-57
2021/08/01 04:35:50;;;;;;;6.73;4.43;;;16.00;99.90;;;;;;5059871;28;20502;-57
2021/08/01 04:38:19;;;;;;;5.27;4.77;;;16.00;99.90;;;;;;5051858;28;20440;-57
2021/08/01 04:40:46;;;;;;;10.07;5.17;;;15.90;99.90;;;;;;5050474;28;20481;-57
2021/08/01 04:43:13;;;;;;;4.93;4.00;;;15.70;99.90;;;;;;5054963;28;20558;-57
2021/08/01 04:45:40;;;;;;;5.63;4.57;;;15.70;99.90;;;;;;5051460;28;20993;-57
2021/08/01 04:48:07;;;;;;;5.40;4.30;;;15.50;99.90;;;;;;5051673;28;20452;-57
2021/08/01 04:50:34;;;;;;;5.07;4.57;;;15.50;99.90;;;;;;5053076;28;20559;-57
2021/08/01 04:53:01;;;;;;;5.10;4.40;;;15.30;99.90;;;;;;5054364;28;20510;-57
2021/08/01 04:55:30;;;;;;;6.90;4.97;;;15.20;99.90;;;;;;5046962;28;20805;-57
2021/08/01 04:57:57;;;;;;;6.60;5.27;;;15.20;99.90;;;;;;5050796;28;20493;-57
2021/08/01 05:00:24;;;;;;;5.40;4.80;;;15.30;99.90;;;;;;5051175;28;20799;-57
2021/08/01 05:02:51;;;;;;;8.20;5.37;;;15.30;99.90;;;;;;5050988;28;20533;-57
2021/08/01 05:05:18;;;;;;;8.83;4.70;;;15.20;99.90;;;;;;5050703;28;20505;-57
2021/08/01 05:07:45;;;;;;;4.93;4.43;;;15.20;99.90;;;;;;5050769;28;20875;-57
2021/08/01 05:10:12;;;;;;;5.63;4.67;;;15.20;99.90;;;;;;5051165;28;20999;-57
2021/08/01 05:12:41;;;;;;;5.80;4.90;;;15.20;99.90;;;;;;5051260;28;20464;-57
2021/08/01 05:15:09;;;;;;;6.23;5.03;;;15.10;99.90;;;;;;5047565;28;20444;-57
2021/08/01 05:17:36;;;;;;;6.07;5.20;;;15.10;99.90;;;;;;5051124;28;20524;-57
2021/08/01 05:20:04;;;;;;;6.70;5.27;;;15.00;99.90;;;;;;5050398;28;20502;-57
2021/08/01 05:22:31;;;;;;;5.97;5.17;;;14.90;99.90;;;;;;5050260;28;20540;-57
2021/08/01 05:24:58;;;;;;;6.27;5.60;;;14.90;99.90;;;;;;5050826;28;20489;-57
2021/08/01 05:27:25;;;;;;;6.00;5.20;;;15.00;99.90;;;;;;5050943;28;20512;-57
2021/08/01 05:29:53;;;;;;;6.93;5.10;;;15.00;99.90;;;;;;5050961;28;20999;-57
2021/08/01 05:32:20;;;;;;;6.70;5.60;;;14.90;99.90;;;;;;5050475;28;20471;-57
2021/08/01 05:34:47;;;;;;;6.40;4.87;;;14.90;99.90;;;;;;5050862;28;20450;-57
2021/08/01 05:37:14;;;;;;;7.23;5.20;;;14.90;99.90;;;;;;5050831;28;20497;-57
2021/08/01 05:39:41;;;;;;;5.60;4.80;;;14.80;99.90;;;;;;5052402;28;20456;-57
2021/08/01 05:42:08;;;;;;;5.30;4.77;;;14.90;99.90;;;;;;5051630;28;20522;-57
2021/08/01 05:44:35;;;;;;;7.30;5.00;;;14.90;99.90;;;;;;5051665;28;20450;-57
2021/08/01 05:47:06;;;;;;;5.40;4.53;;;15.00;99.90;;;;;;5052035;28;20875;-57
2021/08/01 05:49:33;;;;;;;5.27;4.77;;;15.00;99.90;;;;;;5052039;28;20531;-57
2021/08/01 05:52:01;;;;;;;5.97;5.37;;;15.00;99.90;;;;;;5051044;28;20489;-57
2021/08/01 05:54:28;;;;;;;8.13;4.90;;;15.00;99.90;;;;;;5051618;28;20491;-57
2021/08/01 05:56:55;;;;;;;8.77;5.10;;;15.10;99.90;;;;;;5051246;28;20513;-58
2021/08/01 05:59:22;;;;;;;6.17;5.20;;;15.00;99.90;;;;;;5051775;28;20527;-57
2021/08/01 06:01:50;;;;;;;6.47;5.00;;;15.00;99.90;;;;;;5049999;28;20980;-57
2021/08/01 06:04:18;;;;;;;7.23;5.17;;;15.00;99.90;;;;;;5050164;28;20605;-57
2021/08/01 06:06:45;;;;;;;5.33;4.83;;;15.00;99.90;;;;;;5049885;28;20444;-57
2021/08/01 06:09:12;;;;;;;7.20;5.67;;;15.00;99.90;;;;;;5050393;28;20835;-57
2021/08/01 06:11:39;;;;;;;7.27;5.57;;;15.10;99.90;;;;;;5050025;28;20472;-57
2021/08/01 06:14:06;;;;;;;5.80;5.10;;;15.20;99.90;;;;;;5050182;28;20466;-57
2021/08/01 06:16:34;;;;;;;7.00;5.27;;;15.30;99.90;;;;;;5049832;28;20452;-57
2021/08/01 06:19:01;;;;;;;8.17;5.17;;;15.30;99.90;;;;;;5049640;28;20455;-57
2021/08/01 06:21:30;;;;;;;7.07;5.67;;;15.40;99.90;;;;;;5049163;28;20478;-57
2021/08/01 06:23:57;;;;;;;6.50;5.30;;;15.40;99.90;;;;;;5050085;28;20502;-57
2021/08/01 06:26:24;;;;;;;5.37;4.77;;;15.40;99.90;;;;;;5049391;28;20458;-58
2021/08/01 06:28:51;;;;;;;5.77;4.90;;;15.40;99.90;;;;;;5049714;28;20505;-57
2021/08/01 06:31:18;;;;;;;5.73;5.10;;;15.30;99.90;;;;;;5049623;28;20479;-57
2021/08/01 06:33:45;;;;;;;6.20;5.20;;;15.30;99.90;;;;;;5047565;28;20444;-57
2021/08/01 06:36:14;;;;;;;7.90;5.00;;;15.30;99.90;;;;;;5050715;28;20534;-57
2021/08/01 06:38:44;;;;;;;7.70;5.37;;;15.20;99.90;;;;;;5050700;28;20456;-57
2021/08/01 06:41:12;;;;;;;7.13;5.10;;;15.20;99.90;;;;;;5050128;28;20472;-57
2021/08/01 06:43:39;;;;;;;4.97;4.47;;;15.30;99.90;;;;;;5050193;28;20502;-57
2021/08/01 06:46:06;;;;;;;5.03;4.40;;;15.30;99.90;;;;;;5050755;28;20447;-57
2021/08/01 06:48:33;;;;;;;4.90;4.13;;;15.30;99.90;;;;;;5061233;28;20455;-57
2021/08/01 06:51:01;;;;;;;4.73;4.33;;;15.30;99.90;;;;;;5050433;28;20483;-57
2021/08/01 06:53:28;;;;;;;5.00;4.50;;;15.40;99.90;;;;;;5049498;28;21172;-57
2021/08/01 06:55:57;;;;;;;5.93;4.90;;;15.40;99.90;;;;;;5050480;28;20452;-57
2021/08/01 06:58:24;;;;;;;4.60;4.20;;;15.50;99.90;;;;;;5050006;28;20524;-57
2021/08/01 07:00:52;;;;;;;5.03;4.53;;;15.40;99.90;;;;;;5049869;28;20492;-57
2021/08/01 07:03:20;;;;;;;4.90;4.47;;;15.40;99.90;;;;;;5052277;28;20483;-57
2021/08/01 07:05:47;;;;;;;6.43;4.27;;;15.30;99.90;;;;;;5050262;28;20448;-57
2021/08/01 07:08:14;;;;;;;6.33;4.77;;;15.30;99.90;;;;;;5048971;28;20451;-57
2021/08/01 07:10:41;;;;;;;6.03;5.47;;;15.40;99.90;;;;;;5049338;28;20494;-57
2021/08/01 07:13:10;;;;;;;6.43;5.10;;;15.30;99.90;;;;;;5050235;28;20479;-57
2021/08/01 07:15:38;;;;;;;4.07;3.50;;;15.30;99.90;;;;;;5050387;28;20518;-57
2021/08/01 07:18:06;;;;;;;3.30;3.10;;;15.10;99.90;;;;;;5046740;28;20447;-57
2021/08/01 07:20:34;;;;;;;2.70;2.50;;;15.00;99.90;;;;;;5053397;28;20444;-57
2021/08/01 07:23:01;;;;;;;2.53;1.93;;;15.00;99.90;;;;;;5053242;28;20505;-57
2021/08/01 07:25:29;;;;;;;1.60;1.50;;;14.90;99.90;;;;;;5052656;28;20447;-57
2021/08/01 07:27:56;;;;;;;1.90;1.70;;;14.80;99.90;;;;;;5052979;28;21015;-57
2021/08/01 07:30:24;;;;;;;2.33;2.13;;;14.70;99.90;;;;;;5052266;28;21026;-57
2021/08/01 07:32:51;;;;;;;2.50;2.30;;;14.70;99.90;;;;;;5052836;28;20451;-57
2021/08/01 07:35:18;;;;;;;2.43;2.23;;;14.60;99.90;;;;;;5053884;28;20447;-57
2021/08/01 07:37:45;;;;;;;3.63;2.87;;;14.60;99.90;;;;;;5050257;28;20526;-57
2021/08/01 07:40:12;;;;;;;2.90;2.70;;;14.50;99.90;;;;;;5057984;28;20513;-57
2021/08/01 07:42:39;;;;;;;3.37;3.07;;;14.30;99.90;;;;;;5053112;28;20467;-56
2021/08/01 07:45:11;;;;;;;3.20;2.90;;;14.40;99.90;;;;;;5054086;28;20444;-57
2021/08/01 07:47:39;;;;;;;4.50;3.17;;;14.40;99.90;;;;;;5050554;28;20875;-57
2021/08/01 07:50:07;;;;;;;3.07;2.83;;;14.40;99.90;;;;;;5053449;28;20447;-57
2021/08/01 07:52:34;;;;;;;3.23;3.03;;;14.40;99.90;;;;;;5054408;28;20467;-57
2021/08/01 07:55:01;;;;;;;3.63;3.23;;;14.40;99.90;;;;;;5053474;28;20530;-57
2021/08/01 07:57:30;;;;;;;4.70;3.70;;;14.50;99.90;;;;;;5053548;28;20444;-57
2021/08/01 07:59:59;;;;;;;5.07;3.80;;;14.40;99.90;;;;;;5053474;28;20945;-56
2021/08/01 08:02:27;;;;;;;5.57;4.60;;;14.50;99.90;;;;;;5053295;28;20521;-57
2021/08/01 08:04:55;;;;;;;5.53;4.30;;;14.50;99.90;;;;;;5052885;28;20476;-57
2021/08/01 08:07:22;;;;;;;5.63;5.10;;;14.60;99.90;;;;;;5052747;28;20505;-57
2021/08/01 08:09:50;;;;;;;4.80;4.40;;;14.60;99.90;;;;;;5053089;28;20879;-57
2021/08/01 08:12:18;;;;;;;4.80;4.00;;;14.70;99.90;;;;;;5052711;28;20836;-57
2021/08/01 08:14:46;;;;;;;5.83;4.50;;;14.80;99.90;;;;;;5053116;28;20432;-57
2021/08/01 08:17:13;;;;;;;4.40;3.57;;;14.90;99.90;;;;;;5053080;28;20447;-57
2021/08/01 08:19:40;;;;;;;6.07;4.47;;;15.00;99.90;;;;;;5053001;28;20475;-57
2021/08/01 08:22:09;;;;;;;6.00;4.80;;;15.00;99.90;;;;;;5052672;28;20463;-56
2021/08/01 08:24:36;;;;;;;7.40;4.60;;;15.10;99.90;;;;;;5052958;28;20475;-57
2021/08/01 08:27:06;;;;;;;4.87;4.23;;;15.10;99.90;;;;;;5052726;28;20460;-57
2021/08/01 08:29:34;;;;;;;6.27;4.40;;;15.10;99.90;;;;;;5052437;28;20440;-57
2021/08/01 08:32:01;;;;;;;6.00;4.43;;;15.10;99.90;;;;;;5048804;28;20977;-57
2021/08/01 08:34:28;;;;;;;4.90;4.40;;;15.30;99.90;;;;;;5052628;28;20440;-57
2021/08/01 08:37:00;;;;;;;5.23;4.73;;;15.40;99.90;;;;;;5052421;28;20447;-57
2021/08/01 08:39:29;;;;;;;4.77;4.27;;;15.30;99.90;;;;;;5053196;28;20538;-57
2021/08/01 08:41:59;;;;;;;4.60;3.80;;;15.40;99.90;;;;;;5052705;28;20993;-57
2021/08/01 08:44:27;;;;;;;5.13;4.10;;;15.40;99.90;;;;;;5059075;28;20525;-57
2021/08/01 08:46:55;;;;;;;7.63;4.60;;;15.50;99.90;;;;;;5052155;28;20450;-57
2021/08/01 08:49:23;;;;;;;4.23;3.63;;;15.50;99.90;;;;;;5051926;28;20444;-57
2021/08/01 08:51:53;;;;;;;3.60;3.30;;;15.40;99.90;;;;;;5051095;28;20491;-57
2021/08/01 08:54:24;;;;;;;4.40;4.00;;;15.30;99.90;;;;;;5051275;28;20531;-57
2021/08/01 08:56:54;;;;;;;4.60;3.97;;;15.30;99.90;;;;;;5051524;28;20451;-57
2021/08/01 08:59:22;;;;;;;3.90;3.47;;;15.40;99.90;;;;;;5051545;28;20444;-57
2021/08/01 09:01:49;;;;;;;3.97;3.60;;;15.40;99.90;;;;;;5051156;28;20529;-57
2021/08/01 09:04:17;;;;;;;6.10;3.60;;;15.50;99.90;;;;;;5052019;28;20550;-57
2021/08/01 09:06:44;;;;;;;4.90;3.67;;;15.60;99.90;;;;;;5052076;28;20494;-57
2021/08/01 09:09:13;;;;;;;6.10;3.63;;;15.80;99.90;;;;;;5077499;22;20499;-54
2021/08/01 09:11:41;;;;;;;5.70;3.67;;;15.90;99.90;;;;;;5069846;28;20458;-53
2021/08/01 09:14:19;;;;;;;6.87;3.63;;;16.00;99.90;;;;;;5071425;28;20439;-53
2021/08/01 09:16:49;;;;;;;3.50;3.13;;;15.70;99.90;;;;;;5070672;28;20455;-52
2021/08/01 09:19:31;;;;;;;3.73;2.80;;;15.70;99.90;;;;;;5070276;28;20469;-52
2021/08/01 09:22:15;;;;;;;9.10;3.60;;;15.30;99.90;;;;;;5068697;28;20504;-53
2021/08/01 09:24:44;;;;;;;3.40;3.10;;;15.10;99.90;;;;;;5071350;28;20483;-52
2021/08/01 09:27:26;;;;;;;4.07;3.67;;;15.10;99.90;;;;;;5070196;28;20462;-53
2021/08/01 09:29:55;;;;;;;7.37;3.97;;;15.00;99.90;;;;;;5069213;28;20571;-54
2021/08/01 09:32:23;;;;;;;3.97;3.57;;;15.10;99.90;;;;;;5068752;28;20926;-53
2021/08/01 09:34:51;;;;;;;4.17;3.50;;;15.00;99.90;;;;;;5071385;28;20447;-54
2021/08/01 09:37:31;;;;;;;3.27;3.07;;;15.00;99.90;;;;;;5071587;28;20455;-54
2021/08/01 09:40:10;;;;;;;4.30;3.30;;;15.00;99.90;;;;;;5071874;28;20660;-53
2021/08/01 09:42:42;;;;;;;7.80;4.63;;;14.90;99.90;;;;;;5071067;28;20530;-53
2021/08/01 09:45:17;;;;;;;4.27;3.83;;;15.00;99.90;;;;;;5071829;28;20577;-52
2021/08/01 09:47:44;;;;;;;4.60;4.13;;;15.10;99.90;;;;;;5069504;28;21026;-52
2021/08/01 09:50:13;;;;;;;4.77;3.97;;;15.20;99.90;;;;;;5068545;28;20475;-52
2021/08/01 09:52:41;;;;;;;6.13;3.70;;;15.40;99.90;;;;;;5071038;28;20451;-53
2021/08/01 09:55:17;;;;;;;4.27;3.50;;;15.50;99.90;;;;;;5071259;28;20443;-53
2021/08/01 09:57:54;;;;;;;5.10;3.70;;;15.60;99.90;;;;;;5071830;28;20538;-54
2021/08/01 10:00:23;;;;;;;8.43;4.10;;;15.70;99.90;;;;;;5071396;28;20481;-54
2021/08/01 10:02:51;;;;;;;4.23;3.50;;;15.70;99.90;;;;;;5070883;28;20500;-56
2021/08/01 10:05:20;;;;;;;3.73;3.00;;;15.90;99.90;;;;;;5070974;28;20566;-55
2021/08/01 10:07:48;;;;;;;4.60;3.40;;;16.10;99.90;;;;;;5071140;28;20477;-54
2021/08/01 10:10:20;;;;;;;3.77;3.47;;;16.30;99.90;;;;;;5069565;28;20908;-54
2021/08/01 10:12:48;;;;;;;5.87;3.37;;;16.40;99.90;;;;;;5070181;28;20465;-53
2021/08/01 10:15:16;;;;;;;3.87;2.83;;;16.40;99.90;;;;;;5071263;28;20449;-53
2021/08/01 10:17:45;;;;;;;3.07;2.70;;;16.10;99.90;;;;;;5070914;28;20447;-53
2021/08/01 10:20:13;;;;;;;3.73;3.10;;;16.20;99.90;;;;;;5071123;28;20467;-53
2021/08/01 10:22:42;;;;;;;3.67;3.33;;;16.20;99.90;;;;;;5070952;28;20455;-53
2021/08/01 10:25:11;;;;;;;3.97;3.13;;;16.50;99.90;;;;;;5070645;28;20486;-53
2021/08/01 10:27:44;;;;;;;3.47;3.17;;;16.40;99.90;;;;;;5066772;28;20439;-53
2021/08/01 10:30:13;;;;;;;4.93;3.20;;;16.50;99.90;;;;;;5070696;28;20550;-55
2021/08/01 10:32:45;;;;;;;3.23;2.93;;;16.70;99.90;;;;;;5070072;28;20941;-53
2021/08/01 10:35:16;;;;;;;2.97;2.67;;;16.90;99.90;;;;;;5070597;28;20805;-53
2021/08/01 10:37:48;;;;;;;4.83;3.03;;;16.90;99.90;;;;;;5070775;28;20454;-54
2021/08/01 10:40:19;;;;;;;3.03;2.70;;;17.00;99.90;;;;;;5070844;28;20455;-54
2021/08/01 10:42:53;;;;;;;4.23;3.23;;;17.10;99.90;;;;;;5064071;28;21036;-53
2021/08/01 10:45:21;;;;;;;3.10;2.90;;;17.30;99.90;;;;;;5067729;28;20511;-55
2021/08/01 10:47:52;;;;;;;2.43;2.23;;;17.60;99.90;;;;;;5069353;28;20731;-52
2021/08/01 10:50:22;;;;;;;3.03;2.53;;;17.70;99.90;;;;;;5068982;28;20906;-50
2021/08/01 10:52:49;;;;;;;2.97;2.70;;;17.50;99.90;;;;;;5069209;28;20504;-51
2021/08/01 10:55:23;;;;;;;3.27;2.97;;;17.50;99.90;;;;;;5072718;28;20447;-52
2021/08/01 10:58:10;;;;;;;3.30;3.00;;;17.50;99.90;;;;;;5069991;28;20445;-50
2021/08/01 11:01:10;;;;;;;2.53;2.33;;;17.50;99.90;;;;;;5070961;28;21027;-51
2021/08/01 11:03:41;;;;;;;3.87;2.43;;;17.70;99.90;;;;;;5070347;28;20935;-51
2021/08/01 11:06:41;;;;;;;3.87;2.90;;;17.90;99.90;;;;;;5073142;28;20959;-53
2021/08/01 11:09:09;;;;;;;2.60;2.23;;;18.20;99.90;;;;;;5073115;28;20474;-51
2021/08/01 11:11:36;;;;;;;3.67;2.83;;;18.20;99.90;;;;;;5072948;28;20891;-52
2021/08/01 11:14:03;;;;;;;3.03;2.73;;;18.40;99.90;;;;;;5072682;28;20450;-52
2021/08/01 11:16:49;;;;;;;3.10;2.33;;;18.40;99.90;;;;;;5072914;28;20952;-51
2021/08/01 11:19:36;;;;;;;2.70;2.50;;;18.70;99.90;;;;;;5071759;28;20554;-52
2021/08/01 11:22:04;;;;;;;2.90;2.60;;;19.00;99.90;;;;;;5069043;28;20439;-51
2021/08/01 11:24:31;;;;;;;4.37;2.60;;;19.20;99.90;;;;;;5072880;28;20551;-52
2021/08/01 11:27:17;;;;;;;3.33;3.03;;;19.40;99.90;;;;;;5073010;28;20447;-51
2021/08/01 11:30:00;;;;;;;3.50;3.20;;;19.30;99.90;;;;;;5073068;28;20502;-51
2021/08/01 11:32:27;;;;;;;3.03;2.57;;;19.20;99.90;;;;;;5069855;28;20948;-51
2021/08/01 11:35:16;;;;;;;3.10;2.90;;;19.00;99.90;;;;;;5068821;28;20446;-51
2021/08/01 11:37:44;;;;;;;3.70;2.73;;;18.80;99.90;;;;;;5072474;28;20499;-51
2021/08/01 11:40:12;;;;;;;2.90;2.70;;;18.40;99.90;;;;;;5072895;28;20454;-52
2021/08/01 11:42:39;;;;;;;3.03;2.60;;;18.10;99.90;;;;;;5068562;28;20445;-52
2021/08/01 11:45:12;;;;;;;3.03;2.70;;;17.90;99.90;;;;;;5072499;28;20557;-51
2021/08/01 11:47:43;;;;;;;3.27;2.93;;;17.80;99.90;;;;;;5072313;28;21019;-52
2021/08/01 11:50:12;;;;;;;7.43;3.00;;;17.70;99.90;;;;;;5072595;28;20520;-52
2021/08/01 11:52:44;;;;;;;5.13;2.93;;;17.70;99.90;;;;;;5073568;28;20542;-52
2021/08/01 11:55:16;;;;;;;2.97;2.77;;;17.70;99.90;;;;;;5073424;28;20536;-51
2021/08/01 11:57:45;;;;;;;3.00;2.70;;;17.90;99.90;;;;;;5072156;28;20971;-51
2021/08/01 12:00:14;;;;;;;3.17;2.87;;;18.00;99.90;;;;;;5072456;28;20470;-51
2021/08/01 12:02:54;;;;;;;3.40;2.53;;;18.00;99.90;;;;;;5071989;28;20436;-50
2021/08/01 12:05:21;;;;;;;3.60;2.90;;;18.20;99.90;;;;;;5071744;28;20559;-51
2021/08/01 12:07:50;;;;;;;3.40;3.10;;;18.40;99.90;;;;;;5071353;28;20462;-51
2021/08/01 12:10:20;;;;;;;2.57;2.37;;;18.30;99.90;;;;;;5072217;28;20481;-52
2021/08/01 12:12:48;;;;;;;2.87;2.63;;;18.20;99.90;;;;;;5072291;28;20450;-51
2021/08/01 12:15:15;;;;;;;2.93;2.63;;;18.50;99.90;;;;;;5072322;28;20572;-52
2021/08/01 12:17:43;;;;;;;2.80;2.60;;;18.50;99.90;;;;;;5071899;28;20446;-51
2021/08/01 12:20:11;;;;;;;3.53;2.60;;;18.50;99.90;;;;;;5071907;28;20459;-52
2021/08/01 12:22:38;;;;;;;2.90;2.70;;;18.40;99.90;;;;;;5072179;28;21085;-51
2021/08/01 12:25:09;;;;;;;3.40;3.10;;;18.20;99.90;;;;;;5067768;28;20492;-51
2021/08/01 12:27:37;;;;;;;3.27;2.97;;;18.50;99.90;;;;;;5072046;28;20254;-52
2021/08/01 12:30:13;;;;;;;3.20;2.90;;;18.30;99.90;;;;;;5071857;28;20463;-51
2021/08/01 12:32:42;;;;;;;4.40;3.03;;;18.40;99.90;;;;;;5071781;28;20466;-52
2021/08/01 12:35:11;;;;;;;4.33;3.17;;;18.40;99.90;;;;;;5071900;28;20451;-52
2021/08/01 12:37:44;;;;;;;4.87;3.13;;;18.40;99.90;;;;;;5071900;28;20524;-52
2021/08/01 12:40:15;;;;;;;3.57;3.27;;;18.30;99.90;;;;;;5069153;28;20458;-51
2021/08/01 12:42:54;;;;;;;3.73;3.43;;;18.40;99.90;;;;;;5068241;28;20542;-52
2021/08/01 12:45:22;;;;;;;3.40;3.10;;;18.10;99.90;;;;;;5071646;28;20474;-51
2021/08/01 12:47:49;;;;;;;3.30;2.90;;;18.00;99.90;;;;;;5071805;28;20451;-51
2021/08/01 12:50:17;;;;;;;3.77;3.47;;;17.80;99.90;;;;;;5071567;28;20968;-52
2021/08/01 12:52:44;;;;;;;3.30;3.00;;;17.90;99.90;;;;;;5071253;28;20451;-52
2021/08/01 12:55:13;;;;;;;3.20;3.00;;;18.10;99.90;;;;;;5072426;28;20533;-51
2021/08/01 12:58:04;;;;;;;2.30;2.20;;;18.30;99.90;;;;;;5068296;28;20447;-51